sensor_id;sensor_type;location;lat;lon;timestamp;P1;durP1;ratioP1;P2;durP2;ratioP2
37791;SDS011;29527;55.766;37.570;2022-08-19T00:01:13;9.68;;;4.80;;
37791;SDS011;29527;55.766;37.570;2022-08-19T00:03:38;8.25;;;4.47;;
37791;SDS011;29527;55.766;37.570;2022-08-19T00:06:04;10.52;;;4.43;;
37791;SDS011;29527;55.766;37.570;2022-08-19T00:08:30;8.25;;;4.93;;
37791;SDS011;29527;55.766;37.570;2022-08-19T00:10:55;7.90;;;4.80;;
37791;SDS011;29527;55.766;37.570;2022-08-19T00:13:21;8.73;;;5.20;;
37791;SDS011;29527;55.766;37.570;2022-08-19T00:15:46;10.70;;;5.43;;
37791;SDS011;29527;55.766;37.570;2022-08-19T00:18:12;10.77;;;5.63;;
37791;SDS011;29527;55.766;37.570;2022-08-19T00:20:37;15.25;;;5.85;;
37791;SDS011;29527;55.766;37.570;2022-08-19T00:23:05;10.90;;;5.88;;
37791;SDS011;29527;55.766;37.570;2022-08-19T00:25:31;9.75;;;5.28;;
37791;SDS011;29527;55.766;37.570;2022-08-19T00:27:56;11.32;;;5.30;;
37791;SDS011;29527;55.766;37.570;2022-08-19T00:30:23;10.90;;;6.00;;
37791;SDS011;29527;55.766;37.570;2022-08-19T00:32:49;13.60;;;5.35;;
37791;SDS011;29527;55.766;37.570;2022-08-19T00:35:15;9.70;;;5.88;;
37791;SDS011;29527;55.766;37.570;2022-08-19T00:37:41;13.25;;;6.50;;
37791;SDS011;29527;55.766;37.570;2022-08-19T00:40:08;8.90;;;5.70;;
37791;SDS011;29527;55.766;37.570;2022-08-19T00:42:36;10.65;;;6.25;;
37791;SDS011;29527;55.766;37.570;2022-08-19T00:45:02;11.25;;;6.30;;
37791;SDS011;29527;55.766;37.570;2022-08-19T00:47:36;10.80;;;6.78;;
37791;SDS011;29527;55.766;37.570;2022-08-19T00:50:01;12.38;;;6.63;;
37791;SDS011;29527;55.766;37.570;2022-08-19T00:52:33;11.18;;;6.57;;
37791;SDS011;29527;55.766;37.570;2022-08-19T00:55:02;12.50;;;7.05;;
37791;SDS011;29527;55.766;37.570;2022-08-19T00:57:32;12.13;;;7.22;;
37791;SDS011;29527;55.766;37.570;2022-08-19T01:00:05;12.73;;;6.80;;
37791;SDS011;29527;55.766;37.570;2022-08-19T01:02:35;14.98;;;6.85;;
37791;SDS011;29527;55.766;37.570;2022-08-19T01:05:03;12.60;;;6.70;;
37791;SDS011;29527;55.766;37.570;2022-08-19T01:07:32;16.02;;;7.15;;
37791;SDS011;29527;55.766;37.570;2022-08-19T01:09:58;13.77;;;7.10;;
37791;SDS011;29527;55.766;37.570;2022-08-19T01:12:25;10.77;;;7.18;;
37791;SDS011;29527;55.766;37.570;2022-08-19T01:14:50;12.95;;;6.63;;
37791;SDS011;29527;55.766;37.570;2022-08-19T01:17:17;9.40;;;6.60;;
37791;SDS011;29527;55.766;37.570;2022-08-19T01:19:44;9.98;;;6.68;;
37791;SDS011;29527;55.766;37.570;2022-08-19T01:24:46;12.20;;;7.30;;
37791;SDS011;29527;55.766;37.570;2022-08-19T01:27:12;13.30;;;6.90;;
37791;SDS011;29527;55.766;37.570;2022-08-19T01:29:38;12.45;;;6.88;;
37791;SDS011;29527;55.766;37.570;2022-08-19T01:32:07;11.85;;;7.13;;
37791;SDS011;29527;55.766;37.570;2022-08-19T01:34:36;10.05;;;6.40;;
37791;SDS011;29527;55.766;37.570;2022-08-19T01:37:05;21.95;;;7.32;;
37791;SDS011;29527;55.766;37.570;2022-08-19T01:39:36;15.52;;;7.40;;
37791;SDS011;29527;55.766;37.570;2022-08-19T01:42:03;14.70;;;7.65;;
37791;SDS011;29527;55.766;37.570;2022-08-19T01:44:31;15.57;;;7.47;;
37791;SDS011;29527;55.766;37.570;2022-08-19T01:46:56;10.30;;;7.28;;
37791;SDS011;29527;55.766;37.570;2022-08-19T01:49:23;14.48;;;7.32;;
37791;SDS011;29527;55.766;37.570;2022-08-19T01:51:53;13.05;;;7.55;;
37791;SDS011;29527;55.766;37.570;2022-08-19T01:54:19;10.38;;;7.38;;
37791;SDS011;29527;55.766;37.570;2022-08-19T01:56:46;17.02;;;7.60;;
37791;SDS011;29527;55.766;37.570;2022-08-19T01:59:13;12.73;;;7.82;;
37791;SDS011;29527;55.766;37.570;2022-08-19T02:01:41;13.48;;;7.25;;
37791;SDS011;29527;55.766;37.570;2022-08-19T02:04:07;13.30;;;7.65;;
37791;SDS011;29527;55.766;37.570;2022-08-19T02:06:32;16.65;;;7.15;;
37791;SDS011;29527;55.766;37.570;2022-08-19T02:08:59;16.58;;;7.25;;
37791;SDS011;29527;55.766;37.570;2022-08-19T02:11:27;13.65;;;7.35;;
37791;SDS011;29527;55.766;37.570;2022-08-19T02:13:57;11.85;;;7.18;;
37791;SDS011;29527;55.766;37.570;2022-08-19T02:16:23;17.20;;;7.50;;
37791;SDS011;29527;55.766;37.570;2022-08-19T02:18:49;10.55;;;6.75;;
37791;SDS011;29527;55.766;37.570;2022-08-19T02:21:16;13.73;;;7.03;;
37791;SDS011;29527;55.766;37.570;2022-08-19T02:23:43;11.77;;;6.82;;
37791;SDS011;29527;55.766;37.570;2022-08-19T02:26:09;13.05;;;7.00;;
37791;SDS011;29527;55.766;37.570;2022-08-19T02:28:35;9.88;;;6.50;;
37791;SDS011;29527;55.766;37.570;2022-08-19T02:31:01;13.63;;;7.65;;
37791;SDS011;29527;55.766;37.570;2022-08-19T02:33:28;12.45;;;7.15;;
37791;SDS011;29527;55.766;37.570;2022-08-19T02:35:53;11.13;;;6.63;;
37791;SDS011;29527;55.766;37.570;2022-08-19T02:38:19;16.63;;;7.25;;
37791;SDS011;29527;55.766;37.570;2022-08-19T02:40:57;13.57;;;7.50;;
37791;SDS011;29527;55.766;37.570;2022-08-19T02:43:24;11.95;;;6.30;;
37791;SDS011;29527;55.766;37.570;2022-08-19T02:45:52;12.55;;;6.95;;
37791;SDS011;29527;55.766;37.570;2022-08-19T02:48:18;10.43;;;5.93;;
37791;SDS011;29527;55.766;37.570;2022-08-19T02:50:45;15.27;;;6.75;;
37791;SDS011;29527;55.766;37.570;2022-08-19T02:53:11;10.63;;;6.30;;
37791;SDS011;29527;55.766;37.570;2022-08-19T02:55:56;10.13;;;6.13;;
37791;SDS011;29527;55.766;37.570;2022-08-19T02:58:22;10.85;;;6.38;;
37791;SDS011;29527;55.766;37.570;2022-08-19T03:00:50;14.45;;;7.05;;
37791;SDS011;29527;55.766;37.570;2022-08-19T03:03:18;13.43;;;6.78;;
37791;SDS011;29527;55.766;37.570;2022-08-19T03:05:45;12.95;;;6.05;;
37791;SDS011;29527;55.766;37.570;2022-08-19T03:08:11;13.10;;;6.18;;
37791;SDS011;29527;55.766;37.570;2022-08-19T03:10:45;11.25;;;6.35;;
37791;SDS011;29527;55.766;37.570;2022-08-19T03:13:15;12.75;;;5.88;;
37791;SDS011;29527;55.766;37.570;2022-08-19T03:15:43;13.02;;;6.47;;
37791;SDS011;29527;55.766;37.570;2022-08-19T03:18:10;12.48;;;6.47;;
37791;SDS011;29527;55.766;37.570;2022-08-19T03:20:55;10.55;;;5.82;;
37791;SDS011;29527;55.766;37.570;2022-08-19T03:23:21;14.60;;;6.20;;
37791;SDS011;29527;55.766;37.570;2022-08-19T03:25:47;11.63;;;5.45;;
37791;SDS011;29527;55.766;37.570;2022-08-19T03:28:14;8.95;;;6.18;;
37791;SDS011;29527;55.766;37.570;2022-08-19T03:30:41;10.88;;;5.95;;
37791;SDS011;29527;55.766;37.570;2022-08-19T03:33:09;11.13;;;5.80;;
37791;SDS011;29527;55.766;37.570;2022-08-19T03:35:37;9.50;;;6.05;;
37791;SDS011;29527;55.766;37.570;2022-08-19T03:38:05;9.55;;;6.78;;
37791;SDS011;29527;55.766;37.570;2022-08-19T03:40:32;12.00;;;6.57;;
37791;SDS011;29527;55.766;37.570;2022-08-19T03:43:01;12.93;;;6.22;;
37791;SDS011;29527;55.766;37.570;2022-08-19T03:45:27;16.13;;;6.40;;
37791;SDS011;29527;55.766;37.570;2022-08-19T03:47:53;10.32;;;6.50;;
37791;SDS011;29527;55.766;37.570;2022-08-19T03:50:18;14.68;;;6.70;;
37791;SDS011;29527;55.766;37.570;2022-08-19T03:52:48;16.25;;;6.72;;
37791;SDS011;29527;55.766;37.570;2022-08-19T03:55:17;11.23;;;7.30;;
37791;SDS011;29527;55.766;37.570;2022-08-19T03:57:43;10.75;;;6.40;;
37791;SDS011;29527;55.766;37.570;2022-08-19T04:00:10;11.27;;;6.82;;
37791;SDS011;29527;55.766;37.570;2022-08-19T04:02:36;10.77;;;6.25;;
37791;SDS011;29527;55.766;37.570;2022-08-19T04:05:02;11.43;;;6.22;;
37791;SDS011;29527;55.766;37.570;2022-08-19T04:07:28;9.30;;;6.68;;
37791;SDS011;29527;55.766;37.570;2022-08-19T04:09:53;10.88;;;6.55;;
37791;SDS011;29527;55.766;37.570;2022-08-19T04:12:19;10.82;;;6.70;;
37791;SDS011;29527;55.766;37.570;2022-08-19T04:14:45;15.88;;;6.78;;
37791;SDS011;29527;55.766;37.570;2022-08-19T04:17:11;9.52;;;6.65;;
37791;SDS011;29527;55.766;37.570;2022-08-19T04:19:39;9.65;;;6.90;;
37791;SDS011;29527;55.766;37.570;2022-08-19T04:22:05;11.65;;;6.38;;
37791;SDS011;29527;55.766;37.570;2022-08-19T04:24:32;14.18;;;6.95;;
37791;SDS011;29527;55.766;37.570;2022-08-19T04:26:59;11.65;;;7.20;;
37791;SDS011;29527;55.766;37.570;2022-08-19T04:29:27;9.90;;;6.68;;
37791;SDS011;29527;55.766;37.570;2022-08-19T04:31:53;16.95;;;7.20;;
37791;SDS011;29527;55.766;37.570;2022-08-19T04:34:20;12.98;;;6.47;;
37791;SDS011;29527;55.766;37.570;2022-08-19T04:36:49;9.93;;;6.65;;
37791;SDS011;29527;55.766;37.570;2022-08-19T04:39:18;15.25;;;7.03;;
37791;SDS011;29527;55.766;37.570;2022-08-19T04:41:46;11.82;;;6.35;;
37791;SDS011;29527;55.766;37.570;2022-08-19T04:44:31;12.30;;;6.20;;
37791;SDS011;29527;55.766;37.570;2022-08-19T04:46:58;9.95;;;6.65;;
37791;SDS011;29527;55.766;37.570;2022-08-19T04:49:24;9.63;;;6.45;;
37791;SDS011;29527;55.766;37.570;2022-08-19T04:51:51;11.50;;;6.47;;
37791;SDS011;29527;55.766;37.570;2022-08-19T04:54:19;15.65;;;5.93;;
37791;SDS011;29527;55.766;37.570;2022-08-19T04:56:48;13.80;;;6.28;;
37791;SDS011;29527;55.766;37.570;2022-08-19T04:59:15;13.73;;;6.28;;
37791;SDS011;29527;55.766;37.570;2022-08-19T05:01:42;13.15;;;5.75;;
37791;SDS011;29527;55.766;37.570;2022-08-19T05:04:08;10.55;;;5.78;;
37791;SDS011;29527;55.766;37.570;2022-08-19T05:06:34;10.00;;;6.05;;
37791;SDS011;29527;55.766;37.570;2022-08-19T05:09:02;12.10;;;6.07;;
37791;SDS011;29527;55.766;37.570;2022-08-19T05:11:30;7.75;;;5.35;;
37791;SDS011;29527;55.766;37.570;2022-08-19T05:13:59;9.18;;;5.72;;
37791;SDS011;29527;55.766;37.570;2022-08-19T05:16:25;10.80;;;5.93;;
37791;SDS011;29527;55.766;37.570;2022-08-19T05:18:52;8.23;;;6.00;;
37791;SDS011;29527;55.766;37.570;2022-08-19T05:21:36;12.77;;;5.95;;
37791;SDS011;29527;55.766;37.570;2022-08-19T05:24:21;13.82;;;5.82;;
37791;SDS011;29527;55.766;37.570;2022-08-19T05:26:49;7.43;;;5.57;;
37791;SDS011;29527;55.766;37.570;2022-08-19T05:29:16;9.10;;;5.25;;
37791;SDS011;29527;55.766;37.570;2022-08-19T05:31:47;8.05;;;5.72;;
37791;SDS011;29527;55.766;37.570;2022-08-19T05:34:16;7.70;;;5.07;;
37791;SDS011;29527;55.766;37.570;2022-08-19T05:36:43;11.23;;;6.07;;
37791;SDS011;29527;55.766;37.570;2022-08-19T05:39:11;9.82;;;5.43;;
37791;SDS011;29527;55.766;37.570;2022-08-19T05:41:44;8.30;;;5.07;;
37791;SDS011;29527;55.766;37.570;2022-08-19T05:44:11;7.70;;;5.13;;
37791;SDS011;29527;55.766;37.570;2022-08-19T05:46:38;12.75;;;5.60;;
37791;SDS011;29527;55.766;37.570;2022-08-19T05:49:04;7.32;;;5.10;;
37791;SDS011;29527;55.766;37.570;2022-08-19T05:51:31;13.82;;;5.63;;
37791;SDS011;29527;55.766;37.570;2022-08-19T05:53:57;14.80;;;5.22;;
37791;SDS011;29527;55.766;37.570;2022-08-19T05:56:23;8.65;;;5.32;;
37791;SDS011;29527;55.766;37.570;2022-08-19T05:58:49;12.30;;;5.50;;
37791;SDS011;29527;55.766;37.570;2022-08-19T06:01:15;10.07;;;5.25;;
37791;SDS011;29527;55.766;37.570;2022-08-19T06:03:43;8.88;;;4.93;;
37791;SDS011;29527;55.766;37.570;2022-08-19T06:06:10;8.65;;;5.55;;
37791;SDS011;29527;55.766;37.570;2022-08-19T06:08:37;9.48;;;4.65;;
37791;SDS011;29527;55.766;37.570;2022-08-19T06:11:13;10.52;;;5.15;;
37791;SDS011;29527;55.766;37.570;2022-08-19T06:13:45;10.40;;;5.00;;
37791;SDS011;29527;55.766;37.570;2022-08-19T06:16:15;10.05;;;4.80;;
37791;SDS011;29527;55.766;37.570;2022-08-19T06:18:50;10.15;;;5.53;;
37791;SDS011;29527;55.766;37.570;2022-08-19T06:21:25;9.55;;;5.57;;
37791;SDS011;29527;55.766;37.570;2022-08-19T06:23:52;13.10;;;5.35;;
37791;SDS011;29527;55.766;37.570;2022-08-19T06:26:19;14.23;;;5.47;;
37791;SDS011;29527;55.766;37.570;2022-08-19T06:28:47;9.32;;;5.18;;
37791;SDS011;29527;55.766;37.570;2022-08-19T06:31:14;8.23;;;5.38;;
37791;SDS011;29527;55.766;37.570;2022-08-19T06:33:41;7.75;;;4.80;;
37791;SDS011;29527;55.766;37.570;2022-08-19T06:36:15;12.23;;;4.43;;
37791;SDS011;29527;55.766;37.570;2022-08-19T06:38:45;13.65;;;5.28;;
37791;SDS011;29527;55.766;37.570;2022-08-19T06:41:11;6.18;;;5.10;;
37791;SDS011;29527;55.766;37.570;2022-08-19T06:43:36;12.20;;;5.75;;
37791;SDS011;29527;55.766;37.570;2022-08-19T06:46:02;11.27;;;5.47;;
37791;SDS011;29527;55.766;37.570;2022-08-19T06:48:29;9.00;;;5.40;;
37791;SDS011;29527;55.766;37.570;2022-08-19T06:50:55;8.93;;;5.78;;
37791;SDS011;29527;55.766;37.570;2022-08-19T06:53:21;8.40;;;4.93;;
37791;SDS011;29527;55.766;37.570;2022-08-19T06:55:46;10.25;;;5.30;;
37791;SDS011;29527;55.766;37.570;2022-08-19T06:58:12;10.15;;;5.57;;
37791;SDS011;29527;55.766;37.570;2022-08-19T07:00:38;10.30;;;5.75;;
37791;SDS011;29527;55.766;37.570;2022-08-19T07:03:03;12.70;;;6.18;;
37791;SDS011;29527;55.766;37.570;2022-08-19T07:05:29;8.35;;;5.45;;
37791;SDS011;29527;55.766;37.570;2022-08-19T07:07:54;12.63;;;5.43;;
37791;SDS011;29527;55.766;37.570;2022-08-19T07:13:14;9.88;;;5.30;;
37791;SDS011;29527;55.766;37.570;2022-08-19T07:15:40;9.07;;;4.95;;
37791;SDS011;29527;55.766;37.570;2022-08-19T07:18:05;11.77;;;4.95;;
37791;SDS011;29527;55.766;37.570;2022-08-19T07:20:31;7.65;;;4.43;;
37791;SDS011;29527;55.766;37.570;2022-08-19T07:22:58;7.97;;;5.00;;
37791;SDS011;29527;55.766;37.570;2022-08-19T07:25:23;10.73;;;5.00;;
37791;SDS011;29527;55.766;37.570;2022-08-19T07:27:49;9.00;;;4.53;;
37791;SDS011;29527;55.766;37.570;2022-08-19T07:30:15;9.80;;;5.22;;
37791;SDS011;29527;55.766;37.570;2022-08-19T07:32:42;6.68;;;4.68;;
37791;SDS011;29527;55.766;37.570;2022-08-19T07:35:08;8.80;;;4.68;;
37791;SDS011;29527;55.766;37.570;2022-08-19T07:37:34;6.53;;;5.00;;
37791;SDS011;29527;55.766;37.570;2022-08-19T07:40:03;10.35;;;4.78;;
37791;SDS011;29527;55.766;37.570;2022-08-19T07:42:30;7.18;;;4.38;;
37791;SDS011;29527;55.766;37.570;2022-08-19T07:44:56;7.13;;;4.72;;
37791;SDS011;29527;55.766;37.570;2022-08-19T07:47:21;11.25;;;4.80;;
37791;SDS011;29527;55.766;37.570;2022-08-19T07:49:47;7.10;;;4.85;;
37791;SDS011;29527;55.766;37.570;2022-08-19T07:52:13;9.82;;;4.30;;
37791;SDS011;29527;55.766;37.570;2022-08-19T07:54:39;4.85;;;3.88;;
37791;SDS011;29527;55.766;37.570;2022-08-19T07:57:06;7.25;;;4.05;;
37791;SDS011;29527;55.766;37.570;2022-08-19T07:59:32;8.05;;;4.00;;
37791;SDS011;29527;55.766;37.570;2022-08-19T08:01:58;8.43;;;3.78;;
37791;SDS011;29527;55.766;37.570;2022-08-19T08:04:28;6.47;;;4.38;;
37791;SDS011;29527;55.766;37.570;2022-08-19T08:09:56;7.25;;;4.28;;
37791;SDS011;29527;55.766;37.570;2022-08-19T08:12:27;6.97;;;4.60;;
37791;SDS011;29527;55.766;37.570;2022-08-19T08:14:59;11.10;;;3.92;;
37791;SDS011;29527;55.766;37.570;2022-08-19T08:17:30;6.65;;;4.38;;
37791;SDS011;29527;55.766;37.570;2022-08-19T08:19:56;6.88;;;4.68;;
37791;SDS011;29527;55.766;37.570;2022-08-19T08:22:22;9.68;;;4.95;;
37791;SDS011;29527;55.766;37.570;2022-08-19T08:25:13;11.15;;;5.22;;
37791;SDS011;29527;55.766;37.570;2022-08-19T08:27:42;8.63;;;5.05;;
37791;SDS011;29527;55.766;37.570;2022-08-19T08:30:10;7.68;;;5.10;;
37791;SDS011;29527;55.766;37.570;2022-08-19T08:32:39;8.57;;;5.55;;
37791;SDS011;29527;55.766;37.570;2022-08-19T08:35:05;9.32;;;5.30;;
37791;SDS011;29527;55.766;37.570;2022-08-19T08:37:32;9.57;;;5.45;;
37791;SDS011;29527;55.766;37.570;2022-08-19T08:39:58;14.52;;;5.35;;
37791;SDS011;29527;55.766;37.570;2022-08-19T08:42:26;6.57;;;5.32;;
37791;SDS011;29527;55.766;37.570;2022-08-19T08:45:05;9.88;;;4.65;;
37791;SDS011;29527;55.766;37.570;2022-08-19T08:47:40;9.00;;;5.43;;
37791;SDS011;29527;55.766;37.570;2022-08-19T08:50:09;9.52;;;5.07;;
37791;SDS011;29527;55.766;37.570;2022-08-19T08:52:45;6.68;;;4.90;;
37791;SDS011;29527;55.766;37.570;2022-08-19T08:55:15;10.20;;;4.93;;
37791;SDS011;29527;55.766;37.570;2022-08-19T09:00:19;8.75;;;4.88;;
37791;SDS011;29527;55.766;37.570;2022-08-19T09:02:57;7.38;;;4.63;;
37791;SDS011;29527;55.766;37.570;2022-08-19T09:05:26;7.60;;;4.63;;
37791;SDS011;29527;55.766;37.570;2022-08-19T09:08:47;9.80;;;4.75;;
37791;SDS011;29527;55.766;37.570;2022-08-19T09:16:40;9.00;;;4.65;;
37791;SDS011;29527;55.766;37.570;2022-08-19T09:19:06;10.50;;;4.88;;
37791;SDS011;29527;55.766;37.570;2022-08-19T09:21:33;13.18;;;5.07;;
37791;SDS011;29527;55.766;37.570;2022-08-19T09:24:02;7.13;;;4.53;;
37791;SDS011;29527;55.766;37.570;2022-08-19T09:26:29;8.98;;;4.65;;
37791;SDS011;29527;55.766;37.570;2022-08-19T09:28:57;10.98;;;5.25;;
37791;SDS011;29527;55.766;37.570;2022-08-19T09:31:26;10.60;;;5.85;;
37791;SDS011;29527;55.766;37.570;2022-08-19T09:33:53;13.73;;;4.95;;
37791;SDS011;29527;55.766;37.570;2022-08-19T09:36:22;8.35;;;4.93;;
37791;SDS011;29527;55.766;37.570;2022-08-19T09:38:50;9.95;;;5.40;;
37791;SDS011;29527;55.766;37.570;2022-08-19T09:41:18;8.27;;;4.75;;
37791;SDS011;29527;55.766;37.570;2022-08-19T09:43:46;8.70;;;4.50;;
37791;SDS011;29527;55.766;37.570;2022-08-19T09:46:14;8.07;;;4.40;;
37791;SDS011;29527;55.766;37.570;2022-08-19T09:48:41;4.75;;;4.32;;
37791;SDS011;29527;55.766;37.570;2022-08-19T09:51:08;10.75;;;4.20;;
37791;SDS011;29527;55.766;37.570;2022-08-19T09:53:36;4.80;;;3.33;;
37791;SDS011;29527;55.766;37.570;2022-08-19T09:56:03;7.15;;;4.18;;
37791;SDS011;29527;55.766;37.570;2022-08-19T09:58:30;9.68;;;4.05;;
37791;SDS011;29527;55.766;37.570;2022-08-19T10:01:00;8.35;;;3.95;;
37791;SDS011;29527;55.766;37.570;2022-08-19T10:03:27;6.75;;;4.13;;
37791;SDS011;29527;55.766;37.570;2022-08-19T10:05:54;8.25;;;3.95;;
37791;SDS011;29527;55.766;37.570;2022-08-19T10:08:31;7.97;;;4.40;;
37791;SDS011;29527;55.766;37.570;2022-08-19T10:10:59;10.60;;;3.92;;
37791;SDS011;29527;55.766;37.570;2022-08-19T10:13:26;4.78;;;3.70;;
37791;SDS011;29527;55.766;37.570;2022-08-19T10:15:54;5.35;;;4.10;;
37791;SDS011;29527;55.766;37.570;2022-08-19T10:18:21;5.88;;;4.28;;
37791;SDS011;29527;55.766;37.570;2022-08-19T10:20:48;6.18;;;4.07;;
37791;SDS011;29527;55.766;37.570;2022-08-19T10:23:15;11.57;;;4.32;;
37791;SDS011;29527;55.766;37.570;2022-08-19T10:25:42;5.32;;;4.53;;
37791;SDS011;29527;55.766;37.570;2022-08-19T10:28:08;6.22;;;4.40;;
37791;SDS011;29527;55.766;37.570;2022-08-19T10:30:37;10.45;;;4.50;;
37791;SDS011;29527;55.766;37.570;2022-08-19T10:33:06;7.20;;;4.40;;
37791;SDS011;29527;55.766;37.570;2022-08-19T10:35:32;10.27;;;4.63;;
37791;SDS011;29527;55.766;37.570;2022-08-19T10:37:57;11.00;;;5.32;;
37791;SDS011;29527;55.766;37.570;2022-08-19T10:40:28;12.55;;;5.15;;
37791;SDS011;29527;55.766;37.570;2022-08-19T10:42:54;12.63;;;4.90;;
37791;SDS011;29527;55.766;37.570;2022-08-19T10:45:21;11.93;;;5.00;;
37791;SDS011;29527;55.766;37.570;2022-08-19T10:47:48;14.50;;;4.30;;
37791;SDS011;29527;55.766;37.570;2022-08-19T10:50:13;7.50;;;3.20;;
37791;SDS011;29527;55.766;37.570;2022-08-19T10:52:57;8.43;;;3.10;;
37791;SDS011;29527;55.766;37.570;2022-08-19T10:55:33;3.95;;;2.90;;
37791;SDS011;29527;55.766;37.570;2022-08-19T10:58:19;6.47;;;3.45;;
37791;SDS011;29527;55.766;37.570;2022-08-19T11:00:55;7.07;;;3.03;;
37791;SDS011;29527;55.766;37.570;2022-08-19T11:03:22;8.95;;;2.80;;
37791;SDS011;29527;55.766;37.570;2022-08-19T11:06:03;7.15;;;2.65;;
37791;SDS011;29527;55.766;37.570;2022-08-19T11:08:30;6.95;;;2.97;;
37791;SDS011;29527;55.766;37.570;2022-08-19T11:10:57;7.50;;;3.20;;
37791;SDS011;29527;55.766;37.570;2022-08-19T11:13:26;5.30;;;2.88;;
37791;SDS011;29527;55.766;37.570;2022-08-19T11:18:28;7.82;;;3.35;;
37791;SDS011;29527;55.766;37.570;2022-08-19T11:20:53;7.75;;;2.90;;
37791;SDS011;29527;55.766;37.570;2022-08-19T11:23:19;5.10;;;2.80;;
37791;SDS011;29527;55.766;37.570;2022-08-19T11:25:45;4.40;;;2.97;;
37791;SDS011;29527;55.766;37.570;2022-08-19T11:28:11;5.97;;;2.83;;
37791;SDS011;29527;55.766;37.570;2022-08-19T11:30:38;7.43;;;2.55;;
37791;SDS011;29527;55.766;37.570;2022-08-19T11:33:04;6.65;;;2.83;;
37791;SDS011;29527;55.766;37.570;2022-08-19T11:35:29;6.65;;;3.10;;
37791;SDS011;29527;55.766;37.570;2022-08-19T11:37:55;5.50;;;2.85;;
37791;SDS011;29527;55.766;37.570;2022-08-19T11:40:22;6.57;;;2.85;;
37791;SDS011;29527;55.766;37.570;2022-08-19T11:42:48;6.28;;;3.08;;
37791;SDS011;29527;55.766;37.570;2022-08-19T11:45:20;9.73;;;2.85;;
37791;SDS011;29527;55.766;37.570;2022-08-19T11:47:46;3.20;;;2.60;;
37791;SDS011;29527;55.766;37.570;2022-08-19T11:50:12;5.43;;;2.90;;
37791;SDS011;29527;55.766;37.570;2022-08-19T11:52:38;7.78;;;3.17;;
37791;SDS011;29527;55.766;37.570;2022-08-19T11:55:04;3.50;;;2.58;;
37791;SDS011;29527;55.766;37.570;2022-08-19T11:57:30;5.70;;;3.10;;
37791;SDS011;29527;55.766;37.570;2022-08-19T11:59:56;3.38;;;2.72;;
37791;SDS011;29527;55.766;37.570;2022-08-19T12:02:21;4.45;;;2.65;;
37791;SDS011;29527;55.766;37.570;2022-08-19T12:04:48;5.75;;;3.00;;
37791;SDS011;29527;55.766;37.570;2022-08-19T12:07:14;4.72;;;3.20;;
37791;SDS011;29527;55.766;37.570;2022-08-19T12:09:39;5.13;;;3.28;;
37791;SDS011;29527;55.766;37.570;2022-08-19T12:12:05;5.35;;;3.25;;
37791;SDS011;29527;55.766;37.570;2022-08-19T12:14:31;10.93;;;3.33;;
37791;SDS011;29527;55.766;37.570;2022-08-19T12:16:57;8.15;;;3.08;;
37791;SDS011;29527;55.766;37.570;2022-08-19T12:19:22;5.75;;;3.20;;
37791;SDS011;29527;55.766;37.570;2022-08-19T12:21:50;6.20;;;3.20;;
37791;SDS011;29527;55.766;37.570;2022-08-19T12:24:16;7.47;;;3.28;;
37791;SDS011;29527;55.766;37.570;2022-08-19T12:26:47;12.75;;;3.20;;
37791;SDS011;29527;55.766;37.570;2022-08-19T12:29:13;6.07;;;3.60;;
37791;SDS011;29527;55.766;37.570;2022-08-19T12:31:40;6.60;;;3.30;;
37791;SDS011;29527;55.766;37.570;2022-08-19T12:34:05;10.45;;;3.65;;
37791;SDS011;29527;55.766;37.570;2022-08-19T12:36:31;6.13;;;3.38;;
37791;SDS011;29527;55.766;37.570;2022-08-19T12:38:57;4.45;;;3.38;;
37791;SDS011;29527;55.766;37.570;2022-08-19T12:41:24;6.70;;;3.78;;
37791;SDS011;29527;55.766;37.570;2022-08-19T12:43:50;8.68;;;3.45;;
37791;SDS011;29527;55.766;37.570;2022-08-19T12:46:15;8.77;;;3.72;;
37791;SDS011;29527;55.766;37.570;2022-08-19T12:48:42;7.78;;;3.80;;
37791;SDS011;29527;55.766;37.570;2022-08-19T12:51:10;4.60;;;3.40;;
37791;SDS011;29527;55.766;37.570;2022-08-19T12:53:39;5.50;;;3.10;;
37791;SDS011;29527;55.766;37.570;2022-08-19T12:56:09;5.93;;;3.30;;
37791;SDS011;29527;55.766;37.570;2022-08-19T12:58:36;6.30;;;3.30;;
37791;SDS011;29527;55.766;37.570;2022-08-19T13:01:09;7.95;;;3.67;;
37791;SDS011;29527;55.766;37.570;2022-08-19T13:03:37;10.27;;;3.90;;
37791;SDS011;29527;55.766;37.570;2022-08-19T13:06:03;15.10;;;4.25;;
37791;SDS011;29527;55.766;37.570;2022-08-19T13:08:28;7.95;;;3.90;;
37791;SDS011;29527;55.766;37.570;2022-08-19T13:10:54;8.52;;;3.60;;
37791;SDS011;29527;55.766;37.570;2022-08-19T13:13:19;12.40;;;3.58;;
37791;SDS011;29527;55.766;37.570;2022-08-19T13:15:45;11.65;;;3.70;;
37791;SDS011;29527;55.766;37.570;2022-08-19T13:18:10;9.50;;;3.70;;
37791;SDS011;29527;55.766;37.570;2022-08-19T13:20:37;11.45;;;3.70;;
37791;SDS011;29527;55.766;37.570;2022-08-19T13:23:06;11.20;;;4.07;;
37791;SDS011;29527;55.766;37.570;2022-08-19T13:25:32;6.90;;;3.80;;
37791;SDS011;29527;55.766;37.570;2022-08-19T13:27:58;6.95;;;3.60;;
37791;SDS011;29527;55.766;37.570;2022-08-19T13:30:24;9.13;;;4.18;;
37791;SDS011;29527;55.766;37.570;2022-08-19T13:33:09;10.18;;;3.53;;
37791;SDS011;29527;55.766;37.570;2022-08-19T13:38:11;9.63;;;4.00;;
37791;SDS011;29527;55.766;37.570;2022-08-19T13:40:39;7.47;;;3.55;;
37791;SDS011;29527;55.766;37.570;2022-08-19T13:43:05;9.85;;;4.22;;
37791;SDS011;29527;55.766;37.570;2022-08-19T13:45:32;6.70;;;4.25;;
37791;SDS011;29527;55.766;37.570;2022-08-19T13:47:59;10.52;;;4.40;;
37791;SDS011;29527;55.766;37.570;2022-08-19T13:50:27;10.63;;;5.18;;
37791;SDS011;29527;55.766;37.570;2022-08-19T13:52:56;7.65;;;4.57;;
37791;SDS011;29527;55.766;37.570;2022-08-19T13:55:22;7.32;;;4.93;;
37791;SDS011;29527;55.766;37.570;2022-08-19T13:57:52;9.70;;;4.20;;
37791;SDS011;29527;55.766;37.570;2022-08-19T14:00:19;13.25;;;4.28;;
37791;SDS011;29527;55.766;37.570;2022-08-19T14:02:46;6.13;;;4.13;;
37791;SDS011;29527;55.766;37.570;2022-08-19T14:05:13;9.00;;;4.22;;
37791;SDS011;29527;55.766;37.570;2022-08-19T14:07:40;13.00;;;4.85;;
37791;SDS011;29527;55.766;37.570;2022-08-19T14:10:07;9.23;;;4.18;;
37791;SDS011;29527;55.766;37.570;2022-08-19T14:12:36;9.75;;;4.38;;
37791;SDS011;29527;55.766;37.570;2022-08-19T14:15:02;10.07;;;4.43;;
37791;SDS011;29527;55.766;37.570;2022-08-19T14:17:29;9.00;;;4.10;;
37791;SDS011;29527;55.766;37.570;2022-08-19T14:19:58;13.52;;;4.07;;
37791;SDS011;29527;55.766;37.570;2022-08-19T14:22:29;9.77;;;4.95;;
37791;SDS011;29527;55.766;37.570;2022-08-19T14:24:56;9.00;;;5.05;;
37791;SDS011;29527;55.766;37.570;2022-08-19T14:27:22;11.00;;;6.32;;
37791;SDS011;29527;55.766;37.570;2022-08-19T14:29:49;12.25;;;5.68;;
37791;SDS011;29527;55.766;37.570;2022-08-19T14:32:14;11.82;;;5.30;;
37791;SDS011;29527;55.766;37.570;2022-08-19T14:34:40;16.13;;;6.40;;
37791;SDS011;29527;55.766;37.570;2022-08-19T14:37:06;8.98;;;5.82;;
37791;SDS011;29527;55.766;37.570;2022-08-19T14:39:31;12.85;;;6.85;;
37791;SDS011;29527;55.766;37.570;2022-08-19T14:41:57;13.82;;;9.25;;
37791;SDS011;29527;55.766;37.570;2022-08-19T14:44:24;20.83;;;14.25;;
37791;SDS011;29527;55.766;37.570;2022-08-19T14:46:49;19.77;;;12.43;;
37791;SDS011;29527;55.766;37.570;2022-08-19T14:49:15;18.38;;;13.15;;
37791;SDS011;29527;55.766;37.570;2022-08-19T14:51:40;15.40;;;12.00;;
37791;SDS011;29527;55.766;37.570;2022-08-19T14:54:06;15.35;;;11.55;;